Time;durP1;ratioP1;P1;durP2;ratioP2;P2;SDS_P1;SDS_P2;PMS_P1;PMS_P2;Temp;Humidity;BMP_temperature;BMP_pressure;BME280_temperature;BME280_humidity;BME280_pressure;Samples;Min_cycle;Max_cycle;Signal;HPM_P1;HPM_P2
2021/09/12 00:00:23;;;;;;;3.92;1.77;;;17.30;65.20;;;;;;5025689;28;20026;-83
2021/09/12 00:02:49;;;;;;;3.53;1.60;;;17.20;65.00;;;;;;5037912;28;20029;-82
2021/09/12 00:05:15;;;;;;;3.95;1.90;;;17.20;65.20;;;;;;5039006;28;20028;-83
2021/09/12 00:07:41;;;;;;;4.35;1.77;;;17.10;65.40;;;;;;5037999;28;20390;-83
2021/09/12 00:10:07;;;;;;;3.70;1.92;;;17.00;65.40;;;;;;5038713;28;20504;-83
2021/09/12 00:12:34;;;;;;;6.05;2.30;;;17.00;65.60;;;;;;5038707;28;20034;-83
2021/09/12 00:15:00;;;;;;;5.35;1.55;;;17.00;65.50;;;;;;5038821;28;20488;-83
2021/09/12 00:17:25;;;;;;;3.97;1.88;;;16.90;65.60;;;;;;5038951;28;20030;-83
2021/09/12 00:19:51;;;;;;;4.45;1.90;;;16.90;65.80;;;;;;5038644;28;20104;-83
2021/09/12 00:22:17;;;;;;;3.75;2.10;;;16.80;65.90;;;;;;5038306;28;20022;-84
2021/09/12 00:24:43;;;;;;;6.38;2.90;;;16.80;65.90;;;;;;5038439;28;20048;-84
2021/09/12 00:27:09;;;;;;;6.38;2.40;;;16.80;66.00;;;;;;5038708;28;20024;-83
2021/09/12 00:29:35;;;;;;;4.05;2.10;;;16.80;66.20;;;;;;5038597;28;20396;-82
2021/09/12 00:32:00;;;;;;;4.57;2.08;;;16.70;65.90;;;;;;5038714;28;20087;-82
2021/09/12 00:34:26;;;;;;;4.20;2.03;;;16.70;66.80;;;;;;5038051;28;20084;-82
2021/09/12 00:36:52;;;;;;;4.38;2.38;;;16.70;66.00;;;;;;5038553;28;20025;-82
2021/09/12 00:39:18;;;;;;;4.03;2.10;;;16.70;66.50;;;;;;5038122;28;20133;-83
2021/09/12 00:41:45;;;;;;;4.53;2.03;;;16.70;66.50;;;;;;5037523;28;20029;-83
2021/09/12 00:44:12;;;;;;;6.60;2.67;;;16.70;66.40;;;;;;5036834;28;20362;-83
2021/09/12 00:46:40;;;;;;;4.03;2.00;;;16.70;66.30;;;;;;5038413;28;20052;-82
2021/09/12 00:49:06;;;;;;;4.22;2.30;;;16.60;66.40;;;;;;5038133;28;20212;-82
2021/09/12 00:51:32;;;;;;;3.30;1.75;;;16.60;66.60;;;;;;5037221;28;20567;-82
2021/09/12 00:53:59;;;;;;;3.67;1.85;;;16.50;66.40;;;;;;5037013;28;20056;-84
2021/09/12 00:56:28;;;;;;;4.22;1.98;;;16.50;66.60;;;;;;5037118;28;20075;-83
2021/09/12 00:58:59;;;;;;;3.13;1.73;;;16.40;66.80;;;;;;5034299;28;20373;-84
2021/09/12 01:01:26;;;;;;;5.00;2.05;;;16.40;66.80;;;;;;5029148;28;20491;-84
2021/09/12 01:03:55;;;;;;;3.97;1.85;;;16.30;67.00;;;;;;5037937;28;20078;-84
2021/09/12 01:06:21;;;;;;;3.28;1.52;;;16.30;67.00;;;;;;5037941;28;20052;-83
2021/09/12 01:08:48;;;;;;;3.65;1.50;;;16.20;67.00;;;;;;5036664;28;20021;-83
2021/09/12 01:11:13;;;;;;;4.60;2.30;;;16.20;66.70;;;;;;5037788;28;20024;-83
2021/09/12 01:13:43;;;;;;;4.35;1.90;;;16.20;67.10;;;;;;5037517;28;20026;-82
2021/09/12 01:16:13;;;;;;;4.45;2.10;;;16.20;67.20;;;;;;5037738;28;20362;-82
2021/09/12 01:18:40;;;;;;;3.70;1.73;;;16.10;67.20;;;;;;5037981;28;20013;-83
2021/09/12 01:21:13;;;;;;;3.92;1.80;;;16.10;67.30;;;;;;5037996;28;20504;-83
2021/09/12 01:23:39;;;;;;;4.57;2.00;;;16.10;67.40;;;;;;5037813;28;20027;-83
2021/09/12 01:26:05;;;;;;;4.72;2.00;;;16.10;67.40;;;;;;5037791;28;20032;-83
2021/09/12 01:28:31;;;;;;;4.05;2.10;;;16.10;67.50;;;;;;5037418;28;20110;-83
2021/09/12 01:30:57;;;;;;;4.88;2.20;;;16.00;67.40;;;;;;5037459;28;20519;-82
2021/09/12 01:33:23;;;;;;;4.63;2.50;;;16.00;67.60;;;;;;5036794;28;20045;-82
2021/09/12 01:35:49;;;;;;;4.65;2.38;;;16.00;67.40;;;;;;5036810;28;20033;-82
2021/09/12 01:38:14;;;;;;;4.32;1.75;;;16.00;67.50;;;;;;5037512;28;20072;-82
2021/09/12 01:40:41;;;;;;;4.25;2.20;;;15.90;67.40;;;;;;5037106;28;20052;-82
2021/09/12 01:43:07;;;;;;;4.53;2.20;;;16.00;70.10;;;;;;5037643;28;20021;-83
2021/09/12 01:45:33;;;;;;;5.75;2.30;;;15.90;69.80;;;;;;5037439;28;20049;-82
2021/09/12 01:48:00;;;;;;;3.78;2.03;;;15.90;68.50;;;;;;5036089;28;20032;-83
2021/09/12 01:50:27;;;;;;;5.47;1.92;;;15.90;68.20;;;;;;5037206;28;20120;-83
2021/09/12 01:52:53;;;;;;;5.22;2.10;;;15.90;68.20;;;;;;5037367;28;20026;-83
2021/09/12 01:55:18;;;;;;;4.78;1.92;;;16.00;67.90;;;;;;5036041;28;20025;-83
2021/09/12 01:57:45;;;;;;;4.10;1.95;;;16.00;68.00;;;;;;5037382;28;20021;-84
2021/09/12 02:00:11;;;;;;;4.38;2.00;;;16.00;68.00;;;;;;5023626;28;20029;-84
2021/09/12 02:02:37;;;;;;;5.78;2.00;;;16.00;68.10;;;;;;5037290;28;20028;-84
2021/09/12 02:05:03;;;;;;;4.93;2.20;;;16.10;68.30;;;;;;5037181;28;20018;-84
2021/09/12 02:07:30;;;;;;;4.78;1.90;;;16.10;67.90;;;;;;5037248;28;20017;-84
2021/09/12 02:09:56;;;;;;;4.72;2.45;;;16.10;67.70;;;;;;5037001;28;20390;-84
2021/09/12 02:12:22;;;;;;;5.40;2.30;;;16.10;67.90;;;;;;5037148;28;20072;-84
2021/09/12 02:14:47;;;;;;;3.83;2.08;;;16.10;67.70;;;;;;5036782;28;20029;-84
2021/09/12 02:17:13;;;;;;;3.88;2.28;;;16.10;67.90;;;;;;5037457;28;20029;-84
2021/09/12 02:19:39;;;;;;;4.25;2.33;;;16.10;68.20;;;;;;5037098;28;20488;-84
2021/09/12 02:22:07;;;;;;;5.82;2.10;;;16.10;68.10;;;;;;5037126;28;20032;-83
2021/09/12 02:24:33;;;;;;;4.43;2.00;;;16.10;68.20;;;;;;5036792;28;20022;-83
2021/09/12 02:26:59;;;;;;;5.25;2.25;;;16.10;68.30;;;;;;5037057;28;20014;-83
2021/09/12 02:29:25;;;;;;;4.70;2.40;;;16.10;68.00;;;;;;5035400;28;20112;-83
2021/09/12 02:31:51;;;;;;;4.22;1.98;;;16.10;68.60;;;;;;5036981;28;20029;-83
2021/09/12 02:34:17;;;;;;;3.95;2.42;;;16.10;68.40;;;;;;5036437;28;20534;-84
2021/09/12 02:36:43;;;;;;;5.07;2.30;;;16.10;67.90;;;;;;5036975;28;20075;-83
2021/09/12 02:39:09;;;;;;;5.03;2.42;;;16.20;68.10;;;;;;5035592;28;20030;-83
2021/09/12 02:41:35;;;;;;;4.43;2.17;;;16.20;68.10;;;;;;5037055;28;20033;-84
2021/09/12 02:44:00;;;;;;;4.28;1.98;;;16.20;68.10;;;;;;5036700;28;20029;-84
2021/09/12 02:46:27;;;;;;;5.03;2.22;;;16.20;68.10;;;;;;5039483;28;20042;-84
2021/09/12 02:48:53;;;;;;;6.90;2.80;;;16.20;68.50;;;;;;5039096;28;20033;-83
2021/09/12 02:51:19;;;;;;;4.63;2.03;;;16.30;71.90;;;;;;5040682;28;20017;-84
2021/09/12 02:53:44;;;;;;;4.95;2.20;;;16.30;69.80;;;;;;5040274;28;20075;-84
2021/09/12 02:56:10;;;;;;;5.68;2.15;;;16.30;69.30;;;;;;5040492;28;20029;-84
2021/09/12 02:58:36;;;;;;;4.20;2.00;;;16.40;70.20;;;;;;5038761;28;20093;-83
2021/09/12 03:01:02;;;;;;;4.50;2.33;;;16.40;69.60;;;;;;5026785;28;20021;-83
2021/09/12 03:03:27;;;;;;;5.00;2.38;;;16.30;68.70;;;;;;5040162;28;20068;-84
2021/09/12 03:05:55;;;;;;;8.30;2.22;;;16.30;68.30;;;;;;5040324;28;20029;-84
2021/09/12 03:08:21;;;;;;;4.72;2.60;;;16.30;68.30;;;;;;5039054;28;20030;-84
2021/09/12 03:10:47;;;;;;;5.57;2.90;;;16.30;68.30;;;;;;5039969;28;20511;-84
2021/09/12 03:13:14;;;;;;;5.10;2.72;;;16.30;68.30;;;;;;5039707;28;20021;-84
2021/09/12 03:15:40;;;;;;;6.95;3.38;;;16.30;69.00;;;;;;5040224;28;20134;-84
2021/09/12 03:18:05;;;;;;;6.88;3.08;;;16.30;72.10;;;;;;5039676;28;20100;-83
2021/09/12 03:20:31;;;;;;;4.97;3.00;;;16.30;71.00;;;;;;5039867;28;20113;-83
2021/09/12 03:22:57;;;;;;;4.68;2.58;;;16.30;69.80;;;;;;5039665;28;20029;-83
2021/09/12 03:25:23;;;;;;;4.85;2.25;;;16.30;69.60;;;;;;5038412;28;20053;-83
2021/09/12 03:27:52;;;;;;;5.55;2.50;;;16.20;69.80;;;;;;5039648;28;20060;-83
2021/09/12 03:30:18;;;;;;;6.05;2.60;;;16.10;69.20;;;;;;5039930;28;20017;-83
2021/09/12 03:32:44;;;;;;;4.32;2.63;;;16.10;69.30;;;;;;5039116;28;20496;-83
2021/09/12 03:35:10;;;;;;;5.35;2.85;;;15.90;69.10;;;;;;5040122;28;20052;-83
2021/09/12 03:37:36;;;;;;;4.70;2.65;;;15.90;69.20;;;;;;5039497;28;20030;-83
2021/09/12 03:40:02;;;;;;;5.90;2.75;;;15.80;69.40;;;;;;5039688;28;20377;-83
2021/09/12 03:42:28;;;;;;;4.30;2.80;;;15.70;69.50;;;;;;5039169;28;20036;-83
2021/09/12 03:44:54;;;;;;;4.43;2.60;;;15.70;69.60;;;;;;5039652;28;20022;-83
2021/09/12 03:47:20;;;;;;;5.20;2.42;;;15.60;69.70;;;;;;5038279;28;20148;-83
2021/09/12 03:49:46;;;;;;;4.88;2.47;;;15.60;69.80;;;;;;5038487;28;20087;-83
2021/09/12 03:52:12;;;;;;;5.55;2.95;;;15.50;69.60;;;;;;5039407;28;20112;-83
2021/09/12 03:54:38;;;;;;;6.78;2.47;;;15.50;69.50;;;;;;5039343;28;20028;-83
2021/09/12 03:57:04;;;;;;;6.80;3.10;;;15.40;69.40;;;;;;5038418;28;20085;-83
2021/09/12 03:59:30;;;;;;;5.05;2.58;;;15.40;69.30;;;;;;5030430;28;20611;-83
2021/09/12 04:01:55;;;;;;;4.00;2.20;;;15.40;69.30;;;;;;5034378;28;20075;-83
2021/09/12 04:04:21;;;;;;;5.40;2.70;;;15.30;69.40;;;;;;5039256;28;20017;-83
2021/09/12 04:06:47;;;;;;;5.45;2.58;;;15.30;69.40;;;;;;5039044;28;20026;-83
2021/09/12 04:09:13;;;;;;;5.05;2.70;;;15.30;69.50;;;;;;5037722;28;20570;-84
2021/09/12 04:11:38;;;;;;;5.80;2.75;;;15.20;69.60;;;;;;5038909;28;20434;-84
2021/09/12 04:14:04;;;;;;;5.05;2.67;;;15.20;69.40;;;;;;5037459;28;20029;-84
2021/09/12 04:16:30;;;;;;;6.28;2.40;;;15.20;69.50;;;;;;5038824;28;20029;-84
2021/09/12 04:18:56;;;;;;;5.28;2.30;;;15.10;69.30;;;;;;5038858;28;20081;-83
2021/09/12 04:21:22;;;;;;;6.20;2.55;;;15.10;69.70;;;;;;5038786;28;20025;-83
2021/09/12 04:23:48;;;;;;;6.40;2.55;;;15.10;69.60;;;;;;5038748;28;20052;-83
2021/09/12 04:26:14;;;;;;;5.20;2.22;;;15.00;69.50;;;;;;5037616;28;20021;-83
2021/09/12 04:28:40;;;;;;;5.22;2.33;;;15.00;70.40;;;;;;5038806;28;20408;-83
2021/09/12 04:31:06;;;;;;;5.30;2.80;;;15.00;69.90;;;;;;5038581;28;20032;-83
2021/09/12 04:33:31;;;;;;;6.65;3.03;;;15.00;71.40;;;;;;5036865;28;20062;-83
2021/09/12 04:35:57;;;;;;;5.60;2.97;;;15.10;73.90;;;;;;5038653;28;20033;-84
2021/09/12 04:38:23;;;;;;;5.80;3.38;;;15.00;73.10;;;;;;5038855;28;20037;-84
2021/09/12 04:40:49;;;;;;;6.75;3.08;;;15.00;74.20;;;;;;5038225;28;20025;-84
2021/09/12 04:43:15;;;;;;;5.03;2.53;;;15.00;72.30;;;;;;5037151;28;20029;-82
2021/09/12 04:45:41;;;;;;;5.10;2.63;;;14.90;72.00;;;;;;5037281;28;20075;-83
2021/09/12 04:48:07;;;;;;;5.35;3.10;;;14.90;72.20;;;;;;5038356;28;20013;-83
2021/09/12 04:50:34;;;;;;;5.28;3.10;;;14.90;72.90;;;;;;5038187;28;20083;-83
2021/09/12 04:53:00;;;;;;;6.18;3.10;;;15.00;75.40;;;;;;5038279;28;20028;-83
2021/09/12 04:55:25;;;;;;;5.07;2.80;;;14.90;74.00;;;;;;5037991;28;20033;-84
2021/09/12 04:57:51;;;;;;;5.78;2.58;;;14.90;72.50;;;;;;5037953;28;20029;-83
2021/09/12 05:00:17;;;;;;;8.07;2.60;;;14.90;71.70;;;;;;5024958;28;20026;-83
2021/09/12 05:02:43;;;;;;;5.72;2.78;;;14.90;71.40;;;;;;5038059;28;20013;-83
2021/09/12 05:05:09;;;;;;;4.55;2.50;;;14.90;71.20;;;;;;5036508;28;20028;-83
2021/09/12 05:07:35;;;;;;;4.28;2.42;;;14.80;71.20;;;;;;5037127;28;20041;-84
2021/09/12 05:10:02;;;;;;;6.07;2.30;;;14.80;71.10;;;;;;5037570;28;20037;-85
2021/09/12 05:12:28;;;;;;;5.80;2.53;;;14.80;71.20;;;;;;5037702;28;20025;-85
2021/09/12 05:14:56;;;;;;;3.95;2.00;;;14.80;71.20;;;;;;5037810;28;20040;-82
2021/09/12 05:17:22;;;;;;;5.15;2.53;;;14.80;71.10;;;;;;5038174;28;20025;-83
2021/09/12 05:19:48;;;;;;;5.03;2.63;;;14.80;70.90;;;;;;5036517;28;20476;-83
2021/09/12 05:22:14;;;;;;;4.32;2.40;;;14.80;70.90;;;;;;5036403;28;20052;-82
2021/09/12 05:24:40;;;;;;;4.70;2.58;;;14.70;70.70;;;;;;5037760;28;20026;-82
2021/09/12 05:27:06;;;;;;;5.25;2.67;;;14.70;70.70;;;;;;5037708;28;20022;-82
2021/09/12 05:29:32;;;;;;;5.10;2.67;;;14.70;70.80;;;;;;5037341;28;20403;-82
2021/09/12 05:31:58;;;;;;;4.03;2.35;;;14.70;70.30;;;;;;5036097;28;20026;-83
2021/09/12 05:34:24;;;;;;;4.72;2.83;;;14.70;70.70;;;;;;5036945;28;20136;-83
2021/09/12 05:36:50;;;;;;;5.80;2.53;;;14.70;70.60;;;;;;5037540;28;20049;-84
2021/09/12 05:39:16;;;;;;;4.68;2.47;;;14.60;70.60;;;;;;5037068;28;20029;-84
2021/09/12 05:41:42;;;;;;;5.32;2.25;;;14.60;70.60;;;;;;5037454;28;20038;-84
2021/09/12 05:44:07;;;;;;;5.35;2.40;;;14.60;70.70;;;;;;5036985;28;20017;-83
2021/09/12 05:46:35;;;;;;;5.30;2.63;;;14.60;71.00;;;;;;5036296;28;20018;-83
2021/09/12 05:49:01;;;;;;;4.20;2.22;;;14.60;71.20;;;;;;5037509;28;20101;-83
2021/09/12 05:51:27;;;;;;;5.55;2.72;;;14.60;71.00;;;;;;5037536;28;20022;-85
2021/09/12 05:53:53;;;;;;;4.72;2.50;;;14.60;70.90;;;;;;5037102;28;20048;-85
2021/09/12 05:56:19;;;;;;;4.43;2.50;;;14.60;70.80;;;;;;5037297;28;20048;-85
2021/09/12 05:58:45;;;;;;;4.72;2.30;;;14.60;70.60;;;;;;5034488;28;20536;-85
2021/09/12 06:01:13;;;;;;;4.35;2.22;;;14.50;70.50;;;;;;5026321;28;20029;-85
2021/09/12 06:03:39;;;;;;;4.57;2.13;;;14.50;70.70;;;;;;5036091;28;20032;-85
2021/09/12 06:06:05;;;;;;;5.13;2.53;;;14.50;71.40;;;;;;5037280;28;20024;-86
2021/09/12 06:08:31;;;;;;;4.80;2.40;;;14.50;70.80;;;;;;5035835;28;20033;-86
2021/09/12 06:10:57;;;;;;;4.88;2.50;;;14.50;70.90;;;;;;5028235;28;20022;-86
2021/09/12 06:13:25;;;;;;;3.65;1.90;;;14.50;70.80;;;;;;5034809;28;20026;-86
2021/09/12 06:15:51;;;;;;;5.15;2.35;;;14.50;71.10;;;;;;5037168;28;20479;-86
2021/09/12 06:18:17;;;;;;;7.60;2.83;;;14.50;71.40;;;;;;5037061;28;20025;-86
2021/09/12 06:20:43;;;;;;;5.25;2.53;;;14.50;71.50;;;;;;5038287;28;20113;-87
2021/09/12 06:23:09;;;;;;;4.25;2.30;;;14.50;71.60;;;;;;5039606;28;20061;-86
2021/09/12 06:25:35;;;;;;;5.75;2.80;;;14.50;71.70;;;;;;5040934;28;20025;-85
2021/09/12 06:28:01;;;;;;;6.00;2.75;;;14.50;71.80;;;;;;5040665;28;20033;-85
2021/09/12 06:30:27;;;;;;;5.28;2.30;;;14.50;71.60;;;;;;5041150;28;20036;-85
2021/09/12 06:32:53;;;;;;;4.50;2.65;;;14.60;71.70;;;;;;5039002;28;20055;-85
2021/09/12 06:35:19;;;;;;;4.43;2.53;;;14.60;71.90;;;;;;5041142;28;20451;-86
2021/09/12 06:37:45;;;;;;;5.25;2.78;;;14.70;71.90;;;;;;5040807;28;20041;-86
2021/09/12 06:40:12;;;;;;;4.38;2.65;;;14.70;71.90;;;;;;5040758;28;20056;-85
2021/09/12 06:42:39;;;;;;;5.05;2.95;;;14.80;71.80;;;;;;5040288;28;20032;-85
2021/09/12 06:45:06;;;;;;;5.78;3.22;;;14.90;72.00;;;;;;5040697;28;20027;-85
2021/09/12 06:47:32;;;;;;;5.35;2.95;;;14.90;72.00;;;;;;5040425;28;20048;-85
2021/09/12 06:49:58;;;;;;;6.47;2.85;;;14.90;72.00;;;;;;5040741;28;20017;-85
2021/09/12 06:52:24;;;;;;;7.18;3.00;;;15.00;72.10;;;;;;5040302;28;20388;-85
2021/09/12 06:54:50;;;;;;;5.15;2.95;;;15.10;72.10;;;;;;5040636;28;20028;-85
2021/09/12 06:57:16;;;;;;;6.28;3.08;;;15.10;72.20;;;;;;5040026;28;20097;-85
2021/09/12 06:59:42;;;;;;;6.00;3.05;;;15.10;72.10;;;;;;5029263;28;20072;-85
2021/09/12 07:02:10;;;;;;;5.80;2.97;;;15.20;72.20;;;;;;5037017;28;20025;-85
2021/09/12 07:04:35;;;;;;;5.35;2.70;;;15.20;72.20;;;;;;5040290;28;20357;-84
2021/09/12 07:07:01;;;;;;;5.22;2.47;;;15.20;72.10;;;;;;5040199;28;20128;-84
2021/09/12 07:09:27;;;;;;;4.60;2.67;;;15.30;72.00;;;;;;5039103;28;20108;-84
2021/09/12 07:11:53;;;;;;;5.53;3.08;;;15.30;72.00;;;;;;5039833;28;20411;-85
2021/09/12 07:14:19;;;;;;;5.38;2.83;;;15.30;71.70;;;;;;5040210;28;20025;-85
2021/09/12 07:16:44;;;;;;;4.70;2.70;;;15.30;71.70;;;;;;5039816;28;20041;-85
2021/09/12 07:19:10;;;;;;;4.75;2.60;;;15.30;71.70;;;;;;5040234;28;20155;-86
2021/09/12 07:21:36;;;;;;;5.32;2.95;;;15.40;71.70;;;;;;5040313;28;20034;-86
2021/09/12 07:24:03;;;;;;;5.93;2.80;;;15.40;72.20;;;;;;5039714;28;20028;-85
2021/09/12 07:26:29;;;;;;;5.38;2.78;;;15.50;72.30;;;;;;5039639;28;20022;-85
2021/09/12 07:28:55;;;;;;;5.93;3.15;;;15.50;72.50;;;;;;5039627;28;20575;-85
2021/09/12 07:31:20;;;;;;;7.13;3.65;;;15.60;72.70;;;;;;5039761;28;20025;-85
2021/09/12 07:33:46;;;;;;;6.03;3.15;;;15.70;72.30;;;;;;5038479;28;20045;-85
2021/09/12 07:36:12;;;;;;;7.18;3.85;;;15.80;72.50;;;;;;5038457;28;20045;-85
2021/09/12 07:38:38;;;;;;;5.38;3.03;;;15.90;72.20;;;;;;5039673;28;20029;-87
2021/09/12 07:41:04;;;;;;;7.07;3.58;;;16.10;72.10;;;;;;5039426;28;20041;-85
2021/09/12 07:43:30;;;;;;;6.00;3.22;;;16.10;72.10;;;;;;5039300;28;20013;-86
2021/09/12 07:45:56;;;;;;;6.10;3.38;;;16.20;72.20;;;;;;5038072;28;20391;-86
2021/09/12 07:48:21;;;;;;;4.97;2.92;;;16.30;71.90;;;;;;5039627;28;20025;-85
2021/09/12 07:50:47;;;;;;;4.85;3.08;;;16.30;71.40;;;;;;5037972;28;20022;-85
2021/09/12 07:53:13;;;;;;;7.82;3.58;;;16.40;71.50;;;;;;5039428;28;20025;-85
2021/09/12 07:55:39;;;;;;;5.25;3.22;;;16.40;71.40;;;;;;5039072;28;20025;-85
2021/09/12 07:58:05;;;;;;;5.78;2.90;;;16.50;71.60;;;;;;5039132;28;20104;-85
2021/09/12 08:00:31;;;;;;;6.10;3.17;;;16.50;71.30;;;;;;5025830;28;20049;-83
2021/09/12 08:02:57;;;;;;;6.72;3.28;;;16.60;71.40;;;;;;5039021;28;20036;-84
2021/09/12 08:05:23;;;;;;;5.15;2.65;;;16.60;71.40;;;;;;5039055;28;20080;-84
2021/09/12 08:07:49;;;;;;;7.15;3.60;;;16.70;71.30;;;;;;5039247;28;20053;-84
2021/09/12 08:10:15;;;;;;;7.00;3.72;;;16.80;71.40;;;;;;5035838;28;20037;-84
2021/09/12 08:12:41;;;;;;;8.00;3.85;;;16.90;72.00;;;;;;5028626;28;20022;-84
2021/09/12 08:15:07;;;;;;;7.00;3.67;;;17.10;72.20;;;;;;5037709;28;20491;-84
2021/09/12 08:17:33;;;;;;;5.80;3.67;;;17.30;72.00;;;;;;5039017;28;20137;-83
2021/09/12 08:19:59;;;;;;;5.97;3.20;;;17.50;71.90;;;;;;5038885;28;20068;-83
2021/09/12 08:22:25;;;;;;;7.88;3.85;;;17.70;71.90;;;;;;5037504;28;20014;-83
2021/09/12 08:24:50;;;;;;;8.60;3.58;;;18.00;72.20;;;;;;5038485;28;20067;-83
2021/09/12 08:27:16;;;;;;;5.75;3.63;;;18.40;71.80;;;;;;5038522;28;20021;-83
2021/09/12 08:29:42;;;;;;;8.65;3.67;;;18.70;70.80;;;;;;5038480;28;20038;-84
2021/09/12 08:32:08;;;;;;;6.63;3.60;;;18.80;70.40;;;;;;5038655;28;20026;-83
2021/09/12 08:34:36;;;;;;;6.28;3.60;;;18.90;70.40;;;;;;5038073;28;20411;-83
2021/09/12 08:37:02;;;;;;;6.00;2.70;;;19.10;70.50;;;;;;5038480;28;20028;-83
2021/09/12 08:39:28;;;;;;;6.03;3.28;;;19.30;70.00;;;;;;5036722;28;20029;-83
2021/09/12 08:41:54;;;;;;;6.97;3.35;;;19.40;69.70;;;;;;5038336;28;20028;-83
2021/09/12 08:44:20;;;;;;;6.05;3.58;;;19.60;69.60;;;;;;5037678;28;20096;-83
2021/09/12 08:46:47;;;;;;;7.47;3.58;;;19.70;69.40;;;;;;5038552;28;20076;-83
2021/09/12 08:49:15;;;;;;;6.90;3.25;;;19.90;69.00;;;;;;5038309;28;20032;-83
2021/09/12 08:51:41;;;;;;;5.72;2.80;;;20.00;68.50;;;;;;5038291;28;20078;-83
2021/09/12 08:54:07;;;;;;;8.38;2.70;;;20.10;68.30;;;;;;5038134;28;20067;-84
2021/09/12 08:56:33;;;;;;;7.18;3.00;;;20.20;68.30;;;;;;5038291;28;20026;-84
2021/09/12 08:58:59;;;;;;;6.05;2.55;;;20.30;67.80;;;;;;5033871;28;20028;-84
2021/09/12 09:01:36;;;;;;;6.53;2.33;;;20.40;67.80;;;;;;5029272;28;20488;-84
2021/09/12 09:04:04;;;;;;;4.38;2.40;;;20.50;67.80;;;;;;5037976;28;20014;-84
2021/09/12 09:06:35;;;;;;;7.18;2.50;;;20.70;67.60;;;;;;5038061;28;20018;-84
2021/09/12 09:09:02;;;;;;;4.38;2.13;;;20.90;67.20;;;;;;5025111;28;20056;-84
2021/09/12 09:11:33;;;;;;;6.57;2.88;;;21.20;67.80;;;;;;5026523;28;20049;-84
2021/09/12 09:14:16;;;;;;;4.63;2.10;;;22.10;69.20;;;;;;5037726;28;20105;-85
2021/09/12 09:16:44;;;;;;;4.97;2.03;;;23.40;69.30;;;;;;5037714;28;20040;-85
2021/09/12 09:19:10;;;;;;;4.80;1.92;;;24.60;67.50;;;;;;5036481;28;20409;-85
2021/09/12 09:21:37;;;;;;;5.18;2.00;;;25.40;64.10;;;;;;5037697;28;20455;-86
2021/09/12 09:24:08;;;;;;;5.57;1.90;;;26.10;63.90;;;;;;5016568;28;20026;-86
2021/09/12 09:26:37;;;;;;;4.50;1.65;;;27.00;63.40;;;;;;5036172;28;20379;-85
2021/09/12 09:29:03;;;;;;;5.35;1.90;;;27.70;60.90;;;;;;5037462;28;20060;-86
2021/09/12 09:31:29;;;;;;;2.75;1.40;;;28.30;58.80;;;;;;5037468;28;20639;-86
2021/09/12 09:33:55;;;;;;;4.28;1.58;;;28.60;58.60;;;;;;5037186;28;20079;-86
2021/09/12 09:36:21;;;;;;;4.15;1.30;;;29.00;58.90;;;;;;5037420;28;20064;-85
2021/09/12 09:38:47;;;;;;;3.17;1.40;;;29.50;57.30;;;;;;5037399;28;20108;-86
2021/09/12 09:41:17;;;;;;;4.10;1.52;;;30.00;57.60;;;;;;5037259;28;20085;-87
2021/09/12 09:43:48;;;;;;;3.88;1.40;;;30.50;56.60;;;;;;5016531;28;20032;-86
2021/09/12 09:46:25;;;;;;;3.58;1.25;;;30.80;55.20;;;;;;5037550;28;20067;-86
2021/09/12 09:48:52;;;;;;;3.53;1.40;;;31.10;53.90;;;;;;5037207;28;20500;-86
2021/09/12 09:51:18;;;;;;;4.88;1.30;;;31.00;54.40;;;;;;5036042;28;20026;-86
2021/09/12 09:53:45;;;;;;;3.78;1.38;;;30.80;52.60;;;;;;5037114;28;20029;-85
2021/09/12 09:56:11;;;;;;;5.78;1.50;;;30.50;52.40;;;;;;5036938;28;20022;-87
2021/09/12 09:58:37;;;;;;;4.22;1.30;;;29.90;52.40;;;;;;5035580;28;20030;-86
2021/09/12 10:01:03;;;;;;;5.10;1.50;;;29.50;52.60;;;;;;5025531;28;20030;-86
2021/09/12 10:03:30;;;;;;;3.80;1.52;;;29.20;52.30;;;;;;5037268;28;20029;-87
2021/09/12 10:05:56;;;;;;;5.45;1.80;;;29.00;52.40;;;;;;5037331;28;20017;-86
2021/09/12 10:08:26;;;;;;;3.55;1.25;;;28.90;52.80;;;;;;5035980;28;20039;-87
2021/09/12 10:10:53;;;;;;;2.60;1.20;;;29.30;52.80;;;;;;5037196;28;20492;-86
2021/09/12 10:13:22;;;;;;;3.22;1.40;;;29.80;53.40;;;;;;5036818;28;20467;-85
2021/09/12 10:15:52;;;;;;;3.60;1.25;;;30.40;53.20;;;;;;5035918;28;20028;-86
2021/09/12 10:18:24;;;;;;;3.90;1.30;;;30.70;52.30;;;;;;5036991;28;20025;-86
2021/09/12 10:20:50;;;;;;;4.28;1.30;;;30.90;52.20;;;;;;5037067;28;20026;-86
2021/09/12 10:23:16;;;;;;;3.38;1.20;;;31.00;51.60;;;;;;5036965;28;20029;-86
2021/09/12 10:25:42;;;;;;;3.05;1.17;;;31.10;50.90;;;;;;5037013;28;20021;-87
2021/09/12 10:28:08;;;;;;;4.07;1.45;;;31.10;50.70;;;;;;5036700;28;20026;-87
2021/09/12 10:30:38;;;;;;;3.65;1.40;;;31.10;51.00;;;;;;5037100;28;20026;-86
2021/09/12 10:33:11;;;;;;;3.20;1.52;;;31.10;50.00;;;;;;5036620;28;20053;-86
2021/09/12 10:35:46;;;;;;;3.13;1.30;;;30.90;50.20;;;;;;5037202;28;20013;-86
2021/09/12 10:38:13;;;;;;;4.07;1.00;;;30.70;49.70;;;;;;5037043;28;20064;-86
2021/09/12 10:40:48;;;;;;;3.28;1.17;;;30.40;49.50;;;;;;5036683;28;20022;-86
2021/09/12 10:43:26;;;;;;;5.57;1.45;;;30.10;49.70;;;;;;5036727;28;20030;-85
2021/09/12 10:46:04;;;;;;;2.72;1.13;;;29.80;49.80;;;;;;5036708;28;20022;-85
2021/09/12 10:48:55;;;;;;;5.80;2.38;;;29.50;49.90;;;;;;5036828;28;20032;-86
2021/09/12 10:51:21;;;;;;;4.90;2.35;;;29.30;50.60;;;;;;5026726;28;20575;-85
2021/09/12 10:53:59;;;;;;;4.53;1.58;;;29.00;49.40;;;;;;5036695;28;20034;-86
2021/09/12 10:56:25;;;;;;;3.65;1.20;;;28.80;49.50;;;;;;5036972;28;20491;-85
2021/09/12 10:58:59;;;;;;;3.20;1.40;;;28.50;49.70;;;;;;5033129;28;20030;-85
2021/09/12 11:01:41;;;;;;;2.75;1.13;;;28.30;50.50;;;;;;5027950;28;20026;-85
2021/09/12 11:04:09;;;;;;;2.42;1.13;;;28.60;52.20;;;;;;5023670;28;20027;-85
2021/09/12 11:06:42;;;;;;;5.72;1.70;;;29.20;52.10;;;;;;5037676;28;20036;-85
2021/09/12 11:09:23;;;;;;;3.97;1.58;;;29.80;51.60;;;;;;5038883;28;20483;-85
2021/09/12 11:11:57;;;;;;;2.75;1.10;;;30.00;50.90;;;;;;5039999;28;20025;-85
2021/09/12 11:14:24;;;;;;;2.90;1.00;;;30.20;50.10;;;;;;5040210;28;20018;-84
2021/09/12 11:16:50;;;;;;;4.25;1.17;;;30.70;50.20;;;;;;5039968;28;20029;-86
2021/09/12 11:19:16;;;;;;;2.78;0.90;;;31.10;50.00;;;;;;5040001;28;20492;-87
2021/09/12 11:21:48;;;;;;;2.65;1.00;;;31.10;47.50;;;;;;5039856;28;20159;-86
2021/09/12 11:24:14;;;;;;;;;;;31.00;48.20;;;;;;5040143;28;20464;-82
2021/09/12 11:26:41;;;;;;;2.60;1.02;;;31.00;48.40;;;;;;5039957;28;20008;-77
2021/09/12 11:29:37;;;;;;;3.70;1.10;;;31.20;49.10;;;;;;5039602;28;20140;-72
2021/09/12 11:32:04;;;;;;;6.85;1.42;;;31.50;49.20;;;;;;5037695;28;20029;-72
2021/09/12 11:34:31;;;;;;;4.00;1.75;;;31.70;49.00;;;;;;5037428;28;20091;-73
2021/09/12 11:36:59;;;;;;;4.82;1.40;;;32.00;50.20;;;;;;5039428;28;20029;-76
2021/09/12 11:39:34;;;;;;;2.97;1.20;;;32.40;48.10;;;;;;5038023;28;20037;-83
2021/09/12 11:42:03;;;;;;;1.85;0.80;;;32.40;46.50;;;;;;5037991;28;20435;-80
2021/09/12 11:44:34;;;;;;;1.98;0.88;;;32.30;46.10;;;;;;5041719;28;20464;-80
2021/09/12 11:47:01;;;;;;;1.80;0.80;;;32.20;45.50;;;;;;5039626;28;20025;-83
2021/09/12 11:49:27;;;;;;;3.05;1.00;;;32.00;45.70;;;;;;5039727;28;20026;-83
2021/09/12 11:51:53;;;;;;;3.90;2.00;;;31.70;45.30;;;;;;5037956;28;20052;-76
2021/09/12 11:54:22;;;;;;;5.07;3.53;;;31.20;45.10;;;;;;5039476;28;20468;-76
2021/09/12 11:57:08;;;;;;;3.35;1.55;;;30.80;45.20;;;;;;5039239;28;20030;-76
2021/09/12 11:59:39;;;;;;;5.00;1.98;;;30.40;45.30;;;;;;5030186;28;20108;-76
2021/09/12 12:02:10;;;;;;;2.67;1.23;;;30.20;46.00;;;;;;5035718;28;20507;-76
2021/09/12 12:04:39;;;;;;;3.47;1.20;;;29.90;45.50;;;;;;5039306;28;20108;-76
2021/09/12 12:07:05;;;;;;;3.05;1.40;;;29.70;46.60;;;;;;5039007;28;20554;-76
2021/09/12 12:09:46;;;;;;;3.63;1.30;;;29.60;46.80;;;;;;5037692;28;20037;-79
2021/09/12 12:12:15;;;;;;;3.97;1.13;;;29.80;47.70;;;;;;5036656;28;20025;-77
2021/09/12 12:14:52;;;;;;;3.00;1.17;;;30.00;47.50;;;;;;5038864;28;20030;-80
2021/09/12 12:17:23;;;;;;;2.63;1.00;;;30.20;46.50;;;;;;5037902;28;20116;-76
2021/09/12 12:19:51;;;;;;;2.45;0.90;;;30.40;46.60;;;;;;5038128;28;20108;-73
2021/09/12 12:22:22;;;;;;;2.03;0.90;;;30.50;46.60;;;;;;5038848;28;20100;-77
2021/09/12 12:24:53;;;;;;;3.13;1.03;;;30.60;46.20;;;;;;5038584;28;20022;-76
2021/09/12 12:27:20;;;;;;;2.60;0.90;;;30.80;46.30;;;;;;5038654;28;20049;-76
2021/09/12 12:29:58;;;;;;;2.70;0.80;;;30.80;45.30;;;;;;5038560;28;20041;-79
2021/09/12 12:32:25;;;;;;;2.38;0.70;;;30.80;45.80;;;;;;5037444;28;20033;-75
2021/09/12 12:34:52;;;;;;;3.60;1.00;;;30.90;46.30;;;;;;5036855;28;20077;-78
2021/09/12 12:37:44;;;;;;;3.25;1.10;;;30.90;45.70;;;;;;5037487;28;20033;-82
2021/09/12 12:40:10;;;;;;;3.38;0.80;;;30.90;45.10;;;;;;5038628;28;20042;-80
2021/09/12 12:42:47;;;;;;;3.80;1.27;;;30.80;44.90;;;;;;5038019;28;20041;-78
2021/09/12 12:45:30;;;;;;;4.60;2.50;;;30.80;45.00;;;;;;5038816;28;20430;-78
2021/09/12 12:48:00;;;;;;;6.03;4.40;;;30.70;44.90;;;;;;5026899;28;20099;-78